• Join FlightAware (Why Join?)
  • Login
  • US Flag 
09:50AM EDT


 

Airport Tracker/Info


-or-


 

Live Flight TrackerFlight Track Log ✈ UPS1337 ✈ 04-Apr-2014 ✈ KPIE - KRDU

Flight Track Log - Related Links

Times and Time Zones

All times are in EDT time to prevent confusion due to time zone crossing. See the UPS1337 flight status page for this flight to view local times or setup timezone preferences in your user account.

Time Position Orientation Groundspeed Altitude Reporting Facility
EDT Latitude Longitude Course Direction KTS MPH feet Rate Location/Type
09:42PM 27.9167 -82.6833 North 170 196 700  Level Tampa TRACON
09:44PM 28.0286 -82.6622 North 235 270 5,600 3,120 Climbing Jacksonville Center
09:45PM 28.1058 -82.6525 North 246 283 9,500 3,000 Climbing Jacksonville Center
09:46PM 28.1978 -82.6406 North 293 337 11,600 2,700 Climbing Jacksonville Center
09:52PM 28.9041 -82.6141 North 429 494 28,300 2,340 Climbing FlightAware ADS-B (KMCO)
09:53PM 29.0348 -82.6093 North 422 486 28,300 780 Level FlightAware ADS-B (KMCO)
09:54PM 29.1565 -82.6047 North 414 476 30,000 780 Climbing FlightAware ADS-B (KMCO)
09:55PM 29.2600 -82.5997 North 412 474 29,900 120 Descending Jacksonville Center
10:00PM 29.8988 -82.5769 North 416 479 31,000 120 Climbing FlightAware ADS-B (KMCO)
10:03PM 30.2578 -82.5631 North 420 483 31,000  Level FlightAware ADS-B (KMCO)
10:04PM 30.2975 -82.5631 North 416 479 31,000  Level Jacksonville Center
10:05PM 30.4122 -82.5578 North 416 479 31,000  Level Jacksonville Center
10:06PM 30.5311 -82.5356 North 422 486 31,000  Level Jacksonville Center
10:07PM 30.6417 -82.4822 23° Northeast 422 486 31,000 -60 Level Jacksonville Center
10:08PM 30.7542 -82.4186 26° Northeast 428 493 30,900  Descending Jacksonville Center
10:09PM 30.8667 -82.3553 26° Northeast 440 506 31,000  Climbing Jacksonville Center
10:10PM 30.9750 -82.2942 26° Northeast 440 506 31,000  Level Jacksonville Center
10:11PM 31.0894 -82.2328 25° Northeast 440 506 31,000  Level Jacksonville Center
10:12PM 31.2019 -82.1711 25° Northeast 440 506 31,000  Level Jacksonville Center
10:13PM 31.3144 -82.1072 26° Northeast 440 506 31,000  Level Jacksonville Center
10:14PM 31.4286 -82.0403 27° Northeast 445 512 31,000  Level Jacksonville Center
10:15PM 31.5514 -81.9711 26° Northeast 445 512 31,000  Level Jacksonville Center
10:16PM 31.6553 -81.9114 26° Northeast 445 512 31,000  Level Jacksonville Center
10:17PM 31.7800 -81.8417 25° Northeast 445 512 31,000  Level Jacksonville Center
10:18PM 31.8944 -81.7767 26° Northeast 450 518 31,000  Level Jacksonville Center
10:19PM 31.9983 -81.7167 26° Northeast 450 518 31,000  Level Jacksonville Center
10:20PM 32.1250 -81.6439 26° Northeast 450 518 31,000  Level Jacksonville Center
10:21PM 32.2369 -81.5811 25° Northeast 445 512 31,000  Level Jacksonville Center
10:22PM 32.3408 -81.5231 25° Northeast 445 512 31,000  Level Jacksonville Center
10:23PM 32.4653 -81.4497 26° Northeast 445 512 31,000  Level Jacksonville Center
10:24PM 32.5689 -81.3889 26° Northeast 445 512 31,000  Level Jacksonville Center
10:25PM 32.6828 -81.3253 25° Northeast 445 512 31,000  Level Jacksonville Center
10:26PM 32.7969 -81.2542 28° Northeast 450 518 31,000  Level Jacksonville Center
10:27PM 32.9128 -81.1878 26° Northeast 450 518 31,000 -60 Level Jacksonville Center
10:28PM 33.0289 -81.1211 26° Northeast 450 518 30,900  Descending Jacksonville Center
10:29PM 33.1425 -81.0517 27° Northeast 450 518 31,000  Climbing Jacksonville Center
10:30PM 33.2606 -80.9822 26° Northeast 455 524 31,000 -60 Level Jacksonville Center
10:31PM 33.3744 -80.9153 26° Northeast 460 529 30,900  Descending Jacksonville Center
10:32PM 33.4922 -80.8453 26° Northeast 460 529 31,000  Climbing Jacksonville Center
10:33PM 33.6100 -80.7778 26° Northeast 460 529 31,000  Level Jacksonville Center
10:34PM 33.7256 -80.7075 27° Northeast 460 529 31,000 -60 Level Jacksonville Center
10:35PM 33.8392 -80.6372 27° Northeast 460 529 30,900  Descending Jacksonville Center
10:36PM 33.9547 -80.5692 26° Northeast 460 529 31,000  Climbing Jacksonville Center
10:37PM 34.0683 -80.4986 27° Northeast 460 529 31,000  Level Jacksonville Center
10:38PM 34.1858 -80.4325 25° Northeast 460 529 31,000 -1,200 Level Jacksonville Center
10:40PM 34.4153 -80.2894 27° Northeast 462 532 27,300 -1,980 Descending Washington Center
10:41PM 34.5264 -80.2228 26° Northeast 462 532 25,100 -2,040 Descending Washington Center
10:42PM 34.6419 -80.1508 27° Northeast 462 532 23,300 -1,080 Descending Washington Center
10:43PM 34.7511 -80.0811 28° Northeast 457 526 23,000 -240 Descending Washington Center
10:44PM 34.8525 -79.9908 36° Northeast 452 520 22,900 -1,800 Descending Washington Center
10:45PM 34.9439 -79.8892 42° Northeast 441 507 19,500 -3,000 Descending Washington Center
10:46PM 35.0436 -79.7778 42° Northeast 431 496 17,000 -2,100 Descending Washington Center
10:47PM 35.1239 -79.6931 41° Northeast 431 496 15,300 -2,040 Descending Washington Center
10:48PM 35.2108 -79.5933 43° Northeast 401 461 13,100 -2,040 Descending Washington Center
10:49PM 35.2983 -79.5289 31° Northeast 390 449 11,300 -1,500 Descending Washington Center
10:49PM 35.3411 -79.5006 28° Northeast 370 426 11,000 -240 Descending Washington Center
10:50PM 35.3986 -79.4625 28° Northeast 368 423 11,100 60 Climbing Washington Center
10:50PM 35.4222 -79.4458 30° Northeast 374 430 11,100  Level Washington Center
10:51PM 35.4775 -79.4078 29° Northeast 363 418 11,100  Level Washington Center
10:51PM 35.5056 -79.3811 38° Northeast 337 388 11,100  Level Washington Center
10:52PM 35.5492 -79.3192 49° Northeast 337 388 11,100  Level Washington Center
10:52PM 35.5647 -79.2894 57° Northeast 341 392 11,100  Level Washington Center
10:53PM 35.6000 -79.2322 53° Northeast 338 389 11,100  Level Washington Center
10:53PM 35.6286 -79.1850 53° Northeast 343 395 11,100  Level Washington Center
10:54PM 35.6636 -79.1303 52° Northeast 343 395 11,100  Level Washington Center
10:54PM 35.6811 -79.1003 54° Northeast 344 396 11,100  Level Washington Center
10:55PM 35.7206 -79.0381 52° Northeast 343 395 11,100 -840 Level Washington Center
10:55PM 35.7381 -79.0056 56° Northeast 340 391 10,300 -2,520 Descending Washington Center
10:56PM 35.7772 -78.9458 51° Northeast 343 395 8,600 -2,040 Descending Washington Center
10:56PM 35.8033 -78.9086 49° Northeast 317 365 8,100 -660 Descending Washington Center
10:57PM 35.8461 -78.8769 31° Northeast 327 376 8,000 -300 Descending Washington Center
10:57PM 35.8756 -78.8603 25° Northeast 267 307 7,800 -1,260 Descending Washington Center
10:58PM 35.9389 -78.8400 15° North 257 296 6,300 -1,860 Descending Washington Center
10:59PM 35.9986 -78.7883 35° Northeast 262 302 4,400 -1,320 Descending Washington Center
11:00PM 36.0319 -78.7128 61° Northeast 242 278 3,700 -960 Descending Washington Center
11:01PM 35.9953 -78.6753 140° Southeast 162 186 2,600 -780 Descending Washington Center
11:02PM 35.9572 -78.6969 205° Southwest 139 160 2,200 -480 Descending Washington Center
11:03PM 35.9378 -78.7244 229° Southwest 102 117 1,700 -600 Descending Washington Center
11:04PM 35.9161 -78.7517 226° Southwest 112 129 1,100 -600 Descending Washington Center
11:06PM 35.8776 -78.7875 219° Southwest  Level Estimated
11:13PM 35.8776 -78.7875 219° Southwest  Level Estimated
11:14PM 35.8776 -78.7875 43° Northeast  Level Estimated